Time;durP1;ratioP1;P1;durP2;ratioP2;P2;SDS_P1;SDS_P2;PMS_P1;PMS_P2;Temp;Humidity;BMP_temperature;BMP_pressure;BME280_temperature;BME280_humidity;BME280_pressure;Samples;Min_cycle;Max_cycle;Signal;HPM_P1;HPM_P2
2020/12/17 00:00:15;;;;;;;9.07;5.87;;;5.80;96.40;;;;;;4951911;28;20689;-74
2020/12/17 00:02:41;;;;;;;8.00;4.70;;;5.80;96.40;;;;;;4950168;29;20187;-74
2020/12/17 00:05:08;;;;;;;6.43;4.80;;;5.80;96.40;;;;;;4959240;28;20683;-74
2020/12/17 00:07:33;;;;;;;9.90;5.60;;;5.80;96.40;;;;;;4956540;28;20246;-74
2020/12/17 00:09:59;;;;;;;7.97;5.37;;;5.80;96.30;;;;;;4958551;28;21021;-74
2020/12/17 00:12:25;;;;;;;7.87;4.73;;;5.80;96.30;;;;;;4950117;28;20179;-74
2020/12/17 00:14:50;;;;;;;8.37;5.53;;;5.80;96.40;;;;;;4963697;28;20182;-74
2020/12/17 00:17:17;;;;;;;8.60;5.77;;;5.80;96.40;;;;;;4954000;28;20663;-74
2020/12/17 00:19:42;;;;;;;7.57;5.33;;;5.80;96.40;;;;;;4949761;28;20194;-74
2020/12/17 00:22:08;;;;;;;8.10;5.53;;;5.80;96.30;;;;;;4957252;28;20178;-74
2020/12/17 00:24:33;;;;;;;8.80;5.47;;;5.80;96.30;;;;;;4968947;28;20217;-74
2020/12/17 00:27:01;;;;;;;12.63;6.20;;;5.80;96.30;;;;;;4968701;28;20313;-74
2020/12/17 00:29:26;;;;;;;7.03;5.40;;;5.80;96.30;;;;;;4968741;28;20190;-74
2020/12/17 00:31:52;;;;;;;6.43;4.70;;;5.80;96.30;;;;;;4969181;28;20189;-74
2020/12/17 00:34:19;;;;;;;7.70;4.93;;;5.80;96.30;;;;;;4968848;28;20178;-74
2020/12/17 00:36:45;;;;;;;8.67;5.73;;;5.80;96.30;;;;;;4968971;28;20182;-74
2020/12/17 00:39:11;;;;;;;11.27;6.23;;;5.80;96.30;;;;;;4968578;28;20205;-74
2020/12/17 00:41:37;;;;;;;10.40;6.03;;;5.80;96.40;;;;;;4968532;28;20670;-74
2020/12/17 00:44:02;;;;;;;8.47;5.67;;;5.80;96.40;;;;;;4968423;28;20210;-74
2020/12/17 00:46:29;;;;;;;10.93;6.07;;;5.80;96.40;;;;;;4969095;28;20182;-74
2020/12/17 00:48:55;;;;;;;10.10;5.33;;;5.80;96.40;;;;;;4951091;28;20193;-74
2020/12/17 00:51:20;;;;;;;9.03;5.73;;;5.80;96.30;;;;;;4968773;28;20187;-74
2020/12/17 00:53:46;;;;;;;10.93;5.93;;;5.80;96.30;;;;;;4968741;28;20667;-74
2020/12/17 00:56:12;;;;;;;7.70;5.07;;;5.80;96.30;;;;;;4968615;28;20694;-74
2020/12/17 00:58:38;;;;;;;8.30;5.97;;;5.80;96.30;;;;;;4968229;28;20600;-74
2020/12/17 01:01:08;;;;;;;10.03;6.03;;;5.80;96.30;;;;;;4951535;28;20186;-74
2020/12/17 01:03:34;;;;;;;12.97;5.27;;;5.80;96.30;;;;;;4968208;28;20205;-74
2020/12/17 01:06:01;;;;;;;13.67;5.37;;;5.80;96.40;;;;;;4951079;28;20197;-74
2020/12/17 01:08:27;;;;;;;8.37;6.27;;;5.80;96.30;;;;;;4950670;28;20182;-74
2020/12/17 01:10:53;;;;;;;8.67;5.40;;;5.80;96.30;;;;;;4968620;28;20174;-74
2020/12/17 01:13:20;;;;;;;11.13;5.87;;;5.70;96.30;;;;;;4968198;28;20182;-74
2020/12/17 01:15:46;;;;;;;9.50;5.63;;;5.70;96.30;;;;;;4951246;28;20220;-75
2020/12/17 01:18:13;;;;;;;11.80;5.77;;;5.70;96.30;;;;;;4968472;28;20190;-74
2020/12/17 01:20:38;;;;;;;12.23;7.03;;;5.70;96.40;;;;;;4968280;28;20178;-74
2020/12/17 01:23:05;;;;;;;8.93;5.87;;;5.70;96.40;;;;;;4950452;28;20233;-74
2020/12/17 01:25:31;;;;;;;8.93;6.20;;;5.70;96.60;;;;;;4967519;28;20195;-74
2020/12/17 01:27:57;;;;;;;8.50;5.17;;;5.70;96.60;;;;;;4967807;28;20237;-75
2020/12/17 01:30:23;;;;;;;12.47;6.60;;;5.70;96.60;;;;;;4950031;28;20182;-75
2020/12/17 01:32:49;;;;;;;9.30;5.67;;;5.70;96.60;;;;;;4967553;28;20179;-74
2020/12/17 01:35:14;;;;;;;15.97;6.57;;;5.60;96.60;;;;;;4967884;28;20178;-74
2020/12/17 01:37:40;;;;;;;11.70;6.77;;;5.60;96.70;;;;;;4950614;28;20318;-74
2020/12/17 01:40:06;;;;;;;10.30;5.50;;;5.60;96.70;;;;;;4967408;28;20182;-75
2020/12/17 01:42:31;;;;;;;11.73;6.03;;;5.60;96.80;;;;;;4967672;28;20182;-74
2020/12/17 01:44:57;;;;;;;10.47;5.77;;;5.60;96.80;;;;;;4939248;29;20596;-74
2020/12/17 01:47:35;;;;;;;9.53;5.57;;;5.60;97.00;;;;;;4958655;28;20178;-75
2020/12/17 01:50:07;;;;;;;9.23;5.10;;;5.60;96.80;;;;;;4966732;28;20166;-75
2020/12/17 01:52:33;;;;;;;12.97;5.93;;;5.60;96.90;;;;;;4946611;29;20190;-74
2020/12/17 01:55:00;;;;;;;12.63;6.13;;;5.60;97.00;;;;;;4952786;28;20273;-74
2020/12/17 01:57:32;;;;;;;10.33;5.53;;;5.60;97.00;;;;;;4946466;29;20261;-74
2020/12/17 02:00:03;;;;;;;11.37;5.20;;;5.70;97.00;;;;;;4948410;29;20640;-74
2020/12/17 02:02:31;;;;;;;13.67;6.63;;;5.70;97.00;;;;;;4948211;29;20298;-74
2020/12/17 02:04:58;;;;;;;11.80;6.90;;;5.70;97.00;;;;;;4956929;28;20194;-74
2020/12/17 02:07:24;;;;;;;19.33;6.47;;;5.70;96.90;;;;;;4967395;28;20266;-74
2020/12/17 02:09:50;;;;;;;20.03;7.10;;;5.60;96.90;;;;;;4967026;28;20707;-74
2020/12/17 02:12:16;;;;;;;12.13;6.40;;;5.60;97.20;;;;;;4966703;28;20186;-74
2020/12/17 02:14:42;;;;;;;10.50;6.17;;;5.60;97.30;;;;;;4967232;28;20273;-73
2020/12/17 02:17:08;;;;;;;13.27;6.60;;;5.50;97.40;;;;;;4967236;28;20202;-74
2020/12/17 02:19:33;;;;;;;14.40;6.17;;;5.50;97.40;;;;;;4966812;28;20579;-74
2020/12/17 02:21:59;;;;;;;12.83;6.13;;;5.50;97.50;;;;;;4967122;28;20174;-73
2020/12/17 02:24:25;;;;;;;16.57;6.40;;;5.50;97.50;;;;;;4949473;28;20213;-74
2020/12/17 02:26:52;;;;;;;13.27;6.13;;;5.50;97.60;;;;;;4966643;28;20182;-73
2020/12/17 02:29:18;;;;;;;14.93;6.50;;;5.50;97.70;;;;;;4967303;28;20170;-75
2020/12/17 02:31:44;;;;;;;15.93;6.63;;;5.40;97.80;;;;;;4967254;28;20772;-73
2020/12/17 02:34:10;;;;;;;11.67;6.33;;;5.30;98.50;;;;;;4967112;28;20182;-74
2020/12/17 02:36:37;;;;;;;10.47;6.07;;;5.30;98.50;;;;;;4949585;28;20289;-74
2020/12/17 02:39:21;;;;;;;11.67;6.10;;;5.30;98.50;;;;;;4949519;28;20193;-74
2020/12/17 02:41:47;;;;;;;16.97;6.57;;;5.30;98.40;;;;;;4967125;28;20244;-74
2020/12/17 02:44:13;;;;;;;13.77;6.60;;;5.30;98.50;;;;;;4953136;28;20206;-74
2020/12/17 02:46:38;;;;;;;16.47;6.50;;;5.30;98.50;;;;;;4970496;28;20176;-74
2020/12/17 02:49:04;;;;;;;10.50;6.03;;;5.30;98.50;;;;;;4970520;28;20182;-74
2020/12/17 02:51:30;;;;;;;10.40;5.63;;;5.30;98.50;;;;;;4949546;29;20179;-74
2020/12/17 02:53:55;;;;;;;9.07;5.17;;;5.40;98.50;;;;;;4951338;29;20695;-74
2020/12/17 02:56:21;;;;;;;12.63;6.30;;;5.40;98.40;;;;;;4934256;29;20182;-74
2020/12/17 02:58:47;;;;;;;12.17;5.60;;;5.40;98.40;;;;;;4934091;29;20190;-74
2020/12/17 03:01:13;;;;;;;10.17;6.90;;;5.40;98.40;;;;;;4951282;29;20614;-74
2020/12/17 03:03:38;;;;;;;12.63;6.33;;;5.50;98.50;;;;;;4945090;28;20761;-74
2020/12/17 03:06:05;;;;;;;9.80;5.47;;;5.50;98.20;;;;;;4969981;28;20237;-74
2020/12/17 03:08:31;;;;;;;13.43;6.13;;;5.50;98.10;;;;;;4952485;28;20630;-74
2020/12/17 03:10:57;;;;;;;11.60;6.57;;;5.50;98.10;;;;;;4970128;28;20265;-74
2020/12/17 03:13:23;;;;;;;8.17;5.97;;;5.50;98.10;;;;;;4970528;28;20213;-74
2020/12/17 03:15:49;;;;;;;10.13;5.87;;;5.60;98.10;;;;;;4952722;28;20193;-74
2020/12/17 03:18:15;;;;;;;11.50;6.17;;;5.60;98.00;;;;;;4952624;28;21018;-74
2020/12/17 03:20:40;;;;;;;11.37;5.30;;;5.60;97.80;;;;;;4970078;28;20244;-74
2020/12/17 03:23:06;;;;;;;11.63;6.70;;;5.60;97.80;;;;;;4969907;28;20770;-73
2020/12/17 03:25:32;;;;;;;15.53;6.63;;;5.60;97.80;;;;;;4970224;28;20202;-74
2020/12/17 03:27:58;;;;;;;10.40;5.93;;;5.70;97.80;;;;;;4970214;28;20178;-74
2020/12/17 03:30:23;;;;;;;14.87;6.17;;;5.70;97.70;;;;;;4952892;28;20182;-74
2020/12/17 03:32:49;;;;;;;16.63;6.73;;;5.70;97.60;;;;;;4952901;28;20736;-74
2020/12/17 03:35:14;;;;;;;13.00;6.47;;;5.70;97.70;;;;;;4952488;28;20182;-74
2020/12/17 03:37:40;;;;;;;12.33;6.63;;;5.70;97.60;;;;;;4969789;28;20182;-75
2020/12/17 03:40:06;;;;;;;14.03;7.87;;;5.70;97.50;;;;;;4951975;28;20201;-74
2020/12/17 03:42:31;;;;;;;11.60;6.13;;;5.70;97.60;;;;;;4970059;28;20257;-74
2020/12/17 03:44:57;;;;;;;12.70;7.07;;;5.70;97.60;;;;;;4952409;28;20202;-74
2020/12/17 03:47:23;;;;;;;10.27;6.60;;;5.70;97.60;;;;;;4969810;28;20707;-74
2020/12/17 03:49:48;;;;;;;13.53;6.27;;;5.70;97.60;;;;;;4969601;28;20179;-74
2020/12/17 03:52:14;;;;;;;13.47;6.33;;;5.70;97.70;;;;;;4969516;28;20254;-74
2020/12/17 03:54:40;;;;;;;14.37;6.83;;;5.70;97.60;;;;;;4969040;28;20186;-74
2020/12/17 03:57:06;;;;;;;14.10;6.83;;;5.70;97.50;;;;;;4969279;28;20183;-74
2020/12/17 03:59:31;;;;;;;16.83;7.00;;;5.70;97.60;;;;;;4964895;28;20183;-74
2020/12/17 04:01:57;;;;;;;12.40;6.83;;;5.70;97.60;;;;;;4960703;28;20182;-74
2020/12/17 04:04:23;;;;;;;14.77;7.20;;;5.70;97.70;;;;;;4969140;28;20237;-74
2020/12/17 04:06:48;;;;;;;14.43;6.73;;;5.70;97.80;;;;;;4969502;28;20181;-74
2020/12/17 04:09:14;;;;;;;13.60;7.73;;;5.70;98.00;;;;;;4969389;28;20179;-73
2020/12/17 04:11:40;;;;;;;17.73;7.60;;;5.70;98.00;;;;;;4969030;28;20187;-74
2020/12/17 04:14:05;;;;;;;17.57;6.67;;;5.70;98.00;;;;;;4958948;28;20675;-73
2020/12/17 04:16:31;;;;;;;19.50;7.67;;;5.70;98.00;;;;;;4968829;28;20201;-73
2020/12/17 04:18:57;;;;;;;19.10;7.10;;;5.70;98.00;;;;;;4969313;28;20245;-73
2020/12/17 04:21:22;;;;;;;14.80;7.40;;;5.70;98.00;;;;;;4969104;28;20232;-73
2020/12/17 04:23:48;;;;;;;16.23;6.60;;;5.70;98.10;;;;;;4968879;28;20187;-74
2020/12/17 04:26:16;;;;;;;17.73;6.67;;;5.60;98.20;;;;;;4969075;28;20304;-75
2020/12/17 04:28:42;;;;;;;15.83;7.00;;;5.70;98.20;;;;;;4947686;29;20656;-74
2020/12/17 04:31:08;;;;;;;13.57;6.63;;;5.70;98.20;;;;;;4963803;28;20210;-74
2020/12/17 04:33:34;;;;;;;11.60;6.47;;;5.70;98.20;;;;;;4951546;28;20178;-74
2020/12/17 04:36:00;;;;;;;16.23;6.77;;;5.70;98.20;;;;;;4968021;28;20571;-74
2020/12/17 04:38:27;;;;;;;18.93;7.97;;;5.70;98.20;;;;;;4968532;28;20795;-73
2020/12/17 04:40:54;;;;;;;16.03;6.97;;;5.70;98.20;;;;;;4951194;28;20812;-73
2020/12/17 04:43:19;;;;;;;16.30;7.70;;;5.70;98.20;;;;;;4968713;28;20631;-74
2020/12/17 04:45:45;;;;;;;20.27;9.27;;;5.70;98.20;;;;;;4968846;28;20308;-74
2020/12/17 04:48:17;;;;;;;15.20;6.90;;;5.80;98.20;;;;;;4968579;28;20261;-75
2020/12/17 04:50:43;;;;;;;22.60;8.63;;;5.80;98.30;;;;;;4948595;29;20895;-74
2020/12/17 04:53:13;;;;;;;18.30;7.93;;;5.80;98.30;;;;;;4933217;29;20183;-74
2020/12/17 04:55:42;;;;;;;17.30;7.90;;;5.80;98.20;;;;;;4965382;28;20183;-75
2020/12/17 04:58:10;;;;;;;18.20;8.10;;;5.80;98.30;;;;;;4951029;28;20187;-74
2020/12/17 05:00:41;;;;;;;27.87;9.03;;;5.80;98.30;;;;;;4968413;28;20186;-73
2020/12/17 05:03:12;;;;;;;20.67;7.87;;;5.80;98.20;;;;;;4957340;28;20203;-73
2020/12/17 05:05:39;;;;;;;19.77;8.63;;;5.80;98.10;;;;;;4960597;28;20246;-73
2020/12/17 05:08:05;;;;;;;20.20;8.43;;;5.90;98.20;;;;;;4949039;29;20245;-72
2020/12/17 05:10:31;;;;;;;21.87;9.03;;;5.90;98.10;;;;;;4948904;29;20190;-72
2020/12/17 05:12:57;;;;;;;17.50;7.60;;;5.90;98.10;;;;;;4948996;29;20183;-75
2020/12/17 05:15:25;;;;;;;26.07;9.00;;;5.90;98.00;;;;;;4961747;28;20186;-73
2020/12/17 05:17:55;;;;;;;22.53;8.97;;;5.90;98.00;;;;;;4968055;28;20182;-73
2020/12/17 05:20:21;;;;;;;18.67;8.67;;;5.90;98.00;;;;;;4947205;29;20191;-72
2020/12/17 05:22:46;;;;;;;18.97;9.10;;;5.90;98.00;;;;;;4960040;28;20192;-73
2020/12/17 05:25:14;;;;;;;18.83;7.93;;;5.90;98.10;;;;;;4967846;28;20212;-73
2020/12/17 05:27:43;;;;;;;26.17;9.30;;;5.90;98.10;;;;;;4952188;28;20253;-73
2020/12/17 05:30:09;;;;;;;17.10;7.70;;;5.90;98.00;;;;;;4931145;29;20179;-74
2020/12/17 05:32:35;;;;;;;13.47;7.50;;;6.00;98.00;;;;;;4948399;29;20182;-73
2020/12/17 05:35:04;;;;;;;15.63;7.93;;;6.00;98.10;;;;;;4948201;29;20183;-73
2020/12/17 05:37:31;;;;;;;18.03;8.17;;;6.00;98.10;;;;;;4939046;29;20226;-74
2020/12/17 05:39:59;;;;;;;21.00;7.93;;;6.00;98.10;;;;;;4960258;28;20694;-74
2020/12/17 05:42:27;;;;;;;18.47;7.97;;;6.00;98.00;;;;;;4949904;28;20190;-73
2020/12/17 05:44:53;;;;;;;15.43;7.60;;;6.00;98.00;;;;;;4967534;28;20268;-73
2020/12/17 05:47:18;;;;;;;18.30;8.23;;;6.00;98.10;;;;;;4952879;28;20629;-73
2020/12/17 05:49:44;;;;;;;20.10;8.47;;;6.00;98.10;;;;;;4948148;28;20332;-73
2020/12/17 05:52:16;;;;;;;13.23;7.70;;;6.00;98.10;;;;;;4949809;28;20302;-73
2020/12/17 05:54:52;;;;;;;19.87;8.63;;;6.00;98.00;;;;;;4962014;28;20200;-73
2020/12/17 05:57:19;;;;;;;19.60;8.77;;;6.00;98.00;;;;;;4958782;28;20187;-73
2020/12/17 06:00:05;;;;;;;18.83;8.70;;;6.00;98.00;;;;;;4954888;28;20629;-73
2020/12/17 06:02:32;;;;;;;19.87;7.97;;;6.00;97.80;;;;;;4956521;28;20203;-74
2020/12/17 06:05:12;;;;;;;21.60;7.60;;;6.00;97.90;;;;;;4964721;28;20731;-72
2020/12/17 06:07:41;;;;;;;19.47;8.40;;;6.00;97.90;;;;;;4966778;28;20247;-73
2020/12/17 06:10:08;;;;;;;16.83;8.13;;;6.10;98.00;;;;;;4945764;29;20290;-73
2020/12/17 06:12:36;;;;;;;21.80;9.17;;;6.10;97.90;;;;;;4959980;28;20616;-74
2020/12/17 06:15:06;;;;;;;19.73;8.97;;;6.00;97.90;;;;;;4965791;28;20293;-73
2020/12/17 06:17:38;;;;;;;22.33;8.23;;;6.00;98.00;;;;;;4960656;28;20269;-74
2020/12/17 06:20:05;;;;;;;22.07;8.27;;;6.00;98.00;;;;;;4939193;29;20195;-74
2020/12/17 06:22:32;;;;;;;16.00;7.63;;;6.00;98.00;;;;;;4959469;28;20256;-73
2020/12/17 06:24:58;;;;;;;15.43;7.93;;;6.00;98.10;;;;;;4960552;28;20214;-73
2020/12/17 06:27:30;;;;;;;15.63;7.13;;;6.00;98.10;;;;;;4949596;28;20179;-73
2020/12/17 06:30:08;;;;;;;22.53;9.00;;;6.00;98.20;;;;;;4958299;28;20188;-73
2020/12/17 06:32:37;;;;;;;20.43;8.70;;;6.00;98.20;;;;;;4947492;29;20163;-73
2020/12/17 06:35:27;;;;;;;18.43;8.47;;;6.00;98.30;;;;;;4947334;29;20258;-75
2020/12/17 06:37:57;;;;;;;22.50;8.07;;;6.00;98.30;;;;;;4956131;28;20189;-75
2020/12/17 06:40:29;;;;;;;20.20;8.77;;;6.10;98.40;;;;;;4947356;28;20252;-76
2020/12/17 06:42:55;;;;;;;23.83;9.03;;;6.10;98.40;;;;;;4948191;29;20187;-77
2020/12/17 06:45:34;;;;;;;22.40;9.03;;;6.10;98.40;;;;;;4956042;28;20201;-77
2020/12/17 06:48:19;;;;;;;23.50;9.33;;;6.20;98.40;;;;;;4950338;28;20210;-77
2020/12/17 06:50:44;;;;;;;23.00;9.00;;;6.20;98.40;;;;;;4952431;28;20242;-77
2020/12/17 06:53:12;;;;;;;18.73;8.77;;;6.20;98.30;;;;;;4944071;28;20190;-72
2020/12/17 06:55:48;;;;;;;19.67;8.93;;;6.20;98.20;;;;;;4969847;28;20204;-78
2020/12/17 06:58:25;;;;;;;25.77;9.37;;;6.10;98.10;;;;;;4952992;28;20177;-78
2020/12/17 07:00:52;;;;;;;22.57;8.10;;;6.10;98.20;;;;;;4968998;28;20190;-79
2020/12/17 07:03:44;;;;;;;21.90;8.13;;;6.10;98.10;;;;;;4967665;28;20201;-75
2020/12/17 07:06:24;;;;;;;25.87;8.50;;;6.00;98.10;;;;;;4959343;28;20250;-80
2020/12/17 07:08:52;;;;;;;19.17;8.20;;;5.90;98.20;;;;;;4969129;28;20182;-79
2020/12/17 07:11:41;;;;;;;16.13;7.30;;;5.90;98.50;;;;;;4958650;28;20194;-78
2020/12/17 07:14:18;;;;;;;19.53;8.60;;;5.90;98.50;;;;;;4958720;28;20183;-78
2020/12/17 07:16:55;;;;;;;20.07;8.33;;;5.90;98.50;;;;;;4966651;28;20547;-79
2020/12/17 07:19:29;;;;;;;20.00;8.43;;;5.90;98.50;;;;;;4948655;29;20238;-78
2020/12/17 07:22:05;;;;;;;18.90;8.03;;;6.00;98.50;;;;;;4942601;28;20757;-77
2020/12/17 07:24:57;;;;;;;16.77;7.47;;;6.00;98.50;;;;;;4956332;28;20202;-78
2020/12/17 07:27:24;;;;;;;18.57;7.63;;;6.00;98.50;;;;;;4962889;28;20286;-76
2020/12/17 07:29:59;;;;;;;15.40;7.83;;;6.00;98.50;;;;;;4949516;28;20214;-77
2020/12/17 07:32:36;;;;;;;16.70;7.57;;;6.10;98.50;;;;;;4957340;28;20256;-76
2020/12/17 07:35:08;;;;;;;19.50;7.73;;;6.10;98.50;;;;;;4963725;28;20201;-77
2020/12/17 07:37:50;;;;;;;18.90;8.23;;;6.10;98.50;;;;;;4951823;29;20183;-77
2020/12/17 07:40:28;;;;;;;13.37;8.13;;;6.10;98.40;;;;;;4935445;28;20644;-77
2020/12/17 07:43:02;;;;;;;16.27;8.83;;;6.10;98.50;;;;;;4959098;28;20243;-74
2020/12/17 07:45:53;;;;;;;25.87;8.47;;;6.10;98.30;;;;;;4948887;29;20215;-75
2020/12/17 07:48:38;;;;;;;19.97;8.63;;;6.20;98.20;;;;;;4961452;28;20973;-73
2020/12/17 07:51:26;;;;;;;21.13;8.50;;;6.30;98.10;;;;;;4967609;28;20261;-73
2020/12/17 07:53:52;;;;;;;17.70;7.97;;;6.30;98.10;;;;;;4962367;28;20220;-72
2020/12/17 07:56:19;;;;;;;16.90;9.37;;;6.30;98.00;;;;;;4932891;28;20186;-74
2020/12/17 07:58:45;;;;;;;17.00;7.23;;;6.30;97.90;;;;;;4960453;28;20190;-72
2020/12/17 08:01:12;;;;;;;21.93;9.90;;;6.40;97.90;;;;;;4955919;28;20234;-71
2020/12/17 08:03:42;;;;;;;21.17;9.13;;;6.40;97.80;;;;;;4965638;28;20217;-72
2020/12/17 08:06:09;;;;;;;23.43;9.40;;;6.40;97.70;;;;;;4955323;28;20183;-75
2020/12/17 08:08:34;;;;;;;19.80;9.23;;;6.40;97.80;;;;;;4932315;29;20218;-73
2020/12/17 08:11:05;;;;;;;22.93;9.90;;;6.50;97.70;;;;;;4949408;29;20211;-73
2020/12/17 08:13:30;;;;;;;25.70;10.03;;;6.50;97.70;;;;;;4949531;29;20179;-74
2020/12/17 08:16:00;;;;;;;21.60;9.10;;;6.50;97.80;;;;;;4948431;28;20887;-73
2020/12/17 08:18:38;;;;;;;23.77;10.40;;;6.60;97.70;;;;;;4967966;28;20261;-73
2020/12/17 08:21:08;;;;;;;21.77;9.00;;;6.60;97.50;;;;;;4944658;28;20199;-73
2020/12/17 08:23:39;;;;;;;20.13;9.23;;;6.70;97.60;;;;;;4956782;28;20560;-73
2020/12/17 08:26:07;;;;;;;21.57;9.87;;;6.70;97.50;;;;;;4956949;28;20444;-72
2020/12/17 08:28:36;;;;;;;19.07;9.30;;;6.70;97.40;;;;;;4951316;28;20682;-72
2020/12/17 08:31:07;;;;;;;21.30;10.63;;;6.70;97.50;;;;;;4968406;28;20182;-72
2020/12/17 08:33:34;;;;;;;22.70;10.87;;;6.70;97.40;;;;;;4968600;28;20233;-74
2020/12/17 08:36:08;;;;;;;25.37;11.23;;;6.80;97.30;;;;;;4947979;29;20478;-75
2020/12/17 08:38:34;;;;;;;22.83;9.50;;;6.80;97.30;;;;;;4944689;28;20197;-74
2020/12/17 08:41:02;;;;;;;26.53;10.80;;;6.80;97.40;;;;;;4964137;28;20195;-73
2020/12/17 08:43:32;;;;;;;23.40;10.13;;;6.80;97.30;;;;;;4955848;28;20745;-74
2020/12/17 08:45:59;;;;;;;22.80;9.33;;;6.80;97.20;;;;;;4948887;29;20195;-73
2020/12/17 08:48:25;;;;;;;23.17;11.53;;;6.90;97.30;;;;;;4948807;29;20179;-72
2020/12/17 08:50:53;;;;;;;22.73;10.00;;;6.90;97.20;;;;;;4957786;28;20194;-74
2020/12/17 08:53:27;;;;;;;19.27;9.87;;;6.90;97.10;;;;;;4950110;28;20183;-74
2020/12/17 08:56:11;;;;;;;25.37;10.23;;;7.00;97.10;;;;;;4951065;28;20903;-74
2020/12/17 08:58:53;;;;;;;23.47;11.13;;;7.00;97.20;;;;;;4949026;28;20266;-73
2020/12/17 09:01:24;;;;;;;30.80;9.73;;;7.10;97.30;;;;;;4958964;28;20731;-73
2020/12/17 09:03:51;;;;;;;26.90;11.20;;;7.20;97.20;;;;;;4958087;28;20258;-74
2020/12/17 09:06:24;;;;;;;22.13;11.60;;;7.30;97.00;;;;;;4950702;28;20946;-73
2020/12/17 09:08:52;;;;;;;23.83;11.37;;;7.40;96.80;;;;;;4964072;28;20205;-75
2020/12/17 09:11:32;;;;;;;27.33;12.83;;;7.40;96.90;;;;;;4967771;28;20170;-73
2020/12/17 09:13:59;;;;;;;27.67;12.20;;;7.50;96.20;;;;;;4967729;28;20170;-73
2020/12/17 09:16:28;;;;;;;29.47;12.17;;;7.50;96.50;;;;;;4947981;28;20253;-73
2020/12/17 09:18:56;;;;;;;23.23;11.40;;;7.60;95.60;;;;;;4958097;28;20233;-73
2020/12/17 09:21:22;;;;;;;25.77;12.63;;;7.60;95.50;;;;;;4966476;28;20170;-74
2020/12/17 09:23:59;;;;;;;25.60;13.07;;;7.50;95.30;;;;;;4951232;28;20578;-73
2020/12/17 09:26:25;;;;;;;25.50;11.30;;;7.60;94.90;;;;;;4960273;28;20563;-73
2020/12/17 09:28:53;;;;;;;24.90;11.67;;;7.50;95.20;;;;;;4951774;28;20274;-73
2020/12/17 09:31:28;;;;;;;25.80;11.90;;;7.50;95.30;;;;;;4940356;28;20190;-73
2020/12/17 09:34:16;;;;;;;24.77;11.83;;;7.50;95.10;;;;;;4962864;28;20177;-73
2020/12/17 09:36:44;;;;;;;28.67;12.50;;;7.60;95.30;;;;;;4943797;29;20183;-73
2020/12/17 09:39:15;;;;;;;31.63;12.33;;;7.50;95.10;;;;;;4961997;28;20190;-73
2020/12/17 09:44:39;;;;;;;32.63;12.97;;;7.50;95.10;;;;;;4966786;28;20250;-73
2020/12/17 09:47:05;;;;;;;28.63;11.80;;;7.50;95.30;;;;;;4960810;28;20186;-73
2020/12/17 09:49:34;;;;;;;24.70;11.63;;;7.50;95.20;;;;;;4957605;28;20189;-73
2020/12/17 09:52:11;;;;;;;32.70;13.57;;;7.50;95.10;;;;;;4949327;28;20748;-74
2020/12/17 09:54:39;;;;;;;31.03;12.87;;;7.50;95.00;;;;;;4963901;28;20185;-74
2020/12/17 09:57:15;;;;;;;23.47;12.17;;;7.50;95.00;;;;;;4943171;28;20190;-72
2020/12/17 09:59:43;;;;;;;28.87;12.27;;;7.50;95.30;;;;;;4958261;28;20179;-74
2020/12/17 10:02:15;;;;;;;25.50;12.53;;;7.50;95.30;;;;;;4959093;28;20186;-74
2020/12/17 10:04:41;;;;;;;28.90;13.43;;;7.50;95.20;;;;;;4959532;28;20230;-72
2020/12/17 10:07:10;;;;;;;23.63;12.47;;;7.60;95.00;;;;;;4963479;28;20276;-74
2020/12/17 10:09:37;;;;;;;31.67;13.33;;;7.50;95.10;;;;;;4956561;28;20178;-75
2020/12/17 10:12:03;;;;;;;28.23;12.63;;;7.50;94.90;;;;;;4965293;28;20542;-75
2020/12/17 10:14:29;;;;;;;32.23;14.27;;;7.50;95.00;;;;;;4943380;28;20198;-75
2020/12/17 10:17:04;;;;;;;28.57;13.10;;;7.60;94.90;;;;;;4956850;28;20225;-76
2020/12/17 10:19:30;;;;;;;22.33;11.33;;;7.60;95.00;;;;;;4977061;28;20188;-74
2020/12/17 10:21:59;;;;;;;23.83;11.27;;;7.60;95.40;;;;;;4967877;28;20573;-78
2020/12/17 10:24:26;;;;;;;31.20;11.60;;;7.70;95.40;;;;;;4944795;28;20207;-74
2020/12/17 10:26:52;;;;;;;28.67;12.53;;;7.70;95.30;;;;;;4964233;28;20178;-74
2020/12/17 10:29:18;;;;;;;27.77;12.73;;;7.70;95.10;;;;;;4948461;28;20175;-75
2020/12/17 10:31:47;;;;;;;26.03;11.50;;;7.80;95.10;;;;;;4961334;28;20253;-75
2020/12/17 10:34:15;;;;;;;24.60;12.37;;;7.80;95.10;;;;;;4946702;29;20223;-74
2020/12/17 10:36:41;;;;;;;29.40;11.17;;;7.80;94.90;;;;;;4964077;28;20263;-74
2020/12/17 10:39:07;;;;;;;26.40;11.30;;;7.90;94.90;;;;;;4949398;28;20204;-75
2020/12/17 10:41:34;;;;;;;23.33;11.87;;;7.90;94.80;;;;;;4964131;28;20237;-77
2020/12/17 10:44:00;;;;;;;41.10;13.07;;;7.90;94.90;;;;;;4966174;28;20261;-73
2020/12/17 10:46:26;;;;;;;23.93;11.60;;;8.00;95.00;;;;;;4944327;28;20221;-74
2020/12/17 10:48:52;;;;;;;27.67;14.57;;;8.00;95.10;;;;;;4965986;28;20667;-74
2020/12/17 10:51:18;;;;;;;35.93;16.00;;;8.00;94.50;;;;;;4957710;28;20209;-75
2020/12/17 10:53:44;;;;;;;25.60;12.27;;;8.10;94.60;;;;;;4952429;28;20245;-74
2020/12/17 10:56:11;;;;;;;35.80;15.43;;;8.10;94.40;;;;;;4962402;28;20174;-75
2020/12/17 10:58:40;;;;;;;35.63;15.40;;;8.10;94.20;;;;;;4948334;28;20243;-74
2020/12/17 11:01:06;;;;;;;34.43;15.00;;;8.10;94.10;;;;;;4961880;28;20178;-75
2020/12/17 11:03:32;;;;;;;30.77;13.27;;;8.20;93.90;;;;;;4962515;28;20333;-75
2020/12/17 11:05:58;;;;;;;38.03;15.20;;;8.20;94.00;;;;;;4962467;28;20209;-75
2020/12/17 11:08:24;;;;;;;34.53;13.50;;;8.20;94.10;;;;;;4948850;28;20615;-76
2020/12/17 11:10:50;;;;;;;28.03;13.23;;;8.30;94.30;;;;;;4955048;28;20581;-75
2020/12/17 11:13:16;;;;;;;32.67;14.83;;;8.30;94.10;;;;;;4962584;28;20202;-75
2020/12/17 11:15:42;;;;;;;27.17;14.13;;;8.40;93.60;;;;;;4962963;28;20193;-75
2020/12/17 11:18:09;;;;;;;37.03;15.00;;;8.40;93.70;;;;;;4950145;28;20198;-75
2020/12/17 11:20:35;;;;;;;31.20;13.73;;;8.50;93.00;;;;;;4962143;28;20194;-75
2020/12/17 11:23:01;;;;;;;30.70;14.53;;;8.50;93.10;;;;;;4949139;28;20519;-75
2020/12/17 11:25:27;;;;;;;26.87;12.03;;;8.50;93.80;;;;;;4956293;28;20206;-78
2020/12/17 11:27:52;;;;;;;30.47;14.90;;;8.60;94.10;;;;;;4966010;28;20225;-75
2020/12/17 11:30:18;;;;;;;27.93;13.47;;;8.60;94.00;;;;;;4967501;28;20186;-75
2020/12/17 11:32:44;;;;;;;31.33;12.93;;;8.70;93.80;;;;;;4969478;28;20182;-76
2020/12/17 11:35:09;;;;;;;30.93;14.13;;;8.70;93.00;;;;;;4969343;28;20189;-75
2020/12/17 11:37:35;;;;;;;32.40;14.53;;;8.80;92.60;;;;;;4983733;28;20228;-75
2020/12/17 11:40:01;;;;;;;31.53;14.57;;;8.80;92.80;;;;;;4967257;28;20193;-75
2020/12/17 11:42:27;;;;;;;32.87;14.83;;;8.80;93.10;;;;;;4984442;28;20190;-75
2020/12/17 11:44:53;;;;;;;38.10;14.73;;;8.90;92.80;;;;;;4969482;28;20225;-75
2020/12/17 11:47:19;;;;;;;36.33;16.43;;;8.90;92.70;;;;;;4969383;28;20265;-76
2020/12/17 11:49:45;;;;;;;32.17;15.50;;;8.90;92.10;;;;;;4970054;28;20668;-76
2020/12/17 11:52:11;;;;;;;29.43;15.47;;;8.90;91.80;;;;;;4969567;28;20174;-76
2020/12/17 11:54:37;;;;;;;30.47;15.27;;;8.90;92.30;;;;;;4955953;28;20249;-76
2020/12/17 11:57:03;;;;;;;35.10;15.27;;;8.90;92.10;;;;;;4984255;28;20206;-76
2020/12/17 11:59:29;;;;;;;29.73;15.33;;;8.90;92.00;;;;;;4967949;28;20194;-76
2020/12/17 12:01:56;;;;;;;33.10;15.80;;;8.90;92.40;;;;;;4967563;28;20186;-76
2020/12/17 12:04:23;;;;;;;32.30;15.07;;;8.90;92.10;;;;;;4966144;28;20233;-78
2020/12/17 12:06:49;;;;;;;33.80;16.43;;;9.00;92.00;;;;;;4952169;28;20186;-77
2020/12/17 12:09:18;;;;;;;30.33;15.20;;;9.00;92.00;;;;;;4970874;28;20182;-77
2020/12/17 12:11:45;;;;;;;42.08;16.73;;;9.00;92.10;;;;;;4969761;28;20547;-75
2020/12/17 12:14:12;;;;;;;31.43;14.83;;;8.90;91.90;;;;;;4968759;28;20218;-75
2020/12/17 12:16:38;;;;;;;32.90;14.15;;;8.90;91.70;;;;;;4967511;28;20290;-74
2020/12/17 12:19:04;;;;;;;28.90;14.13;;;8.90;91.60;;;;;;4967766;28;20201;-75
2020/12/17 12:21:29;;;;;;;31.23;14.10;;;8.90;91.70;;;;;;4968440;28;20667;-76
2020/12/17 12:23:55;;;;;;;29.53;14.37;;;8.90;91.90;;;;;;4965174;28;20280;-77
2020/12/17 12:26:21;;;;;;;44.58;15.80;;;9.00;91.90;;;;;;4970951;28;20186;-77
2020/12/17 12:28:46;;;;;;;37.58;14.93;;;9.00;92.30;;;;;;4969843;28;20182;-79
2020/12/17 12:31:16;;;;;;;41.30;15.30;;;9.00;92.40;;;;;;4972062;28;20690;-77
2020/12/17 12:33:43;;;;;;;31.23;13.83;;;9.10;91.90;;;;;;4970636;28;20182;-82
2020/12/17 12:36:09;;;;;;;28.33;12.30;;;9.10;92.10;;;;;;4971806;28;20216;-77
2020/12/17 12:38:35;;;;;;;28.67;13.43;;;9.10;91.80;;;;;;4972884;28;20186;-79
2020/12/17 12:41:01;;;;;;;29.05;14.00;;;9.10;92.00;;;;;;4967482;28;20194;-76
2020/12/17 12:43:27;;;;;;;31.47;14.50;;;9.10;92.00;;;;;;4966784;28;20194;-76
2020/12/17 12:45:53;;;;;;;27.47;13.20;;;9.10;92.10;;;;;;4959531;28;20207;-75
2020/12/17 12:48:19;;;;;;;19.47;10.43;;;9.20;92.00;;;;;;4962655;28;20655;-74
2020/12/17 12:50:48;;;;;;;25.65;11.00;;;9.20;91.60;;;;;;4967136;28;20195;-74
2020/12/17 12:53:14;;;;;;;19.83;9.97;;;9.20;91.80;;;;;;4967015;28;20681;-74